createdAt,value
2023-04-10T00:02:41.690Z,10.3
2023-04-10T00:07:41.589Z,10.1
2023-04-10T00:17:41.653Z,9.9
2023-04-10T00:32:41.606Z,10.0
2023-04-10T00:37:41.589Z,10.2
2023-04-10T00:42:41.630Z,10.0
2023-04-10T01:02:41.691Z,9.8
2023-04-10T01:07:41.608Z,9.9
2023-04-10T01:17:41.639Z,9.8
2023-04-10T01:22:41.824Z,9.6
2023-04-10T01:32:41.649Z,9.3
2023-04-10T01:37:41.608Z,9.1
2023-04-10T01:47:41.634Z,8.9
2023-04-10T01:52:41.598Z,9.0
2023-04-10T01:57:41.638Z,9.1
2023-04-10T02:02:41.743Z,9.3
2023-04-10T02:05:46.667Z,9.3
2023-04-10T02:07:41.619Z,9.4
2023-04-10T02:12:41.656Z,9.2
2023-04-10T02:17:41.615Z,9.3
2023-04-10T02:27:41.652Z,9.2
2023-04-10T02:32:41.653Z,9.3
2023-04-10T02:42:41.627Z,9.2
2023-04-10T02:47:41.772Z,9.1
2023-04-10T02:52:41.634Z,9.0
2023-04-10T02:57:41.628Z,8.9
2023-04-10T03:02:41.784Z,8.8
2023-04-10T03:07:41.670Z,9.0
2023-04-10T03:12:41.663Z,8.9
2023-04-10T03:22:41.637Z,8.8
2023-04-10T03:32:41.663Z,8.6
2023-04-10T03:37:41.662Z,8.4
2023-04-10T03:47:41.700Z,8.3
2023-04-10T03:52:41.672Z,8.2
2023-04-10T03:57:41.656Z,8.4
2023-04-10T04:02:41.813Z,8.5
2023-04-10T04:07:41.651Z,8.6
2023-04-10T04:12:41.673Z,8.4
2023-04-10T04:17:41.683Z,8.6
2023-04-10T04:22:41.645Z,8.7
2023-04-10T04:27:41.683Z,8.6
2023-04-10T04:47:41.728Z,8.7
2023-04-10T04:57:41.690Z,8.5
2023-04-10T05:02:41.804Z,8.6
2023-04-10T05:17:41.765Z,8.8
2023-04-10T05:32:41.718Z,8.9
2023-04-10T05:42:41.684Z,9.2
2023-04-10T05:47:41.702Z,9.1
2023-04-10T05:52:41.702Z,9.2
2023-04-10T05:57:41.705Z,9.3
2023-04-10T06:02:41.996Z,9.4
2023-04-10T06:07:41.678Z,9.6
2023-04-10T06:12:41.680Z,9.7
2023-04-10T06:17:41.901Z,9.8
2023-04-10T06:22:41.709Z,9.9
2023-04-10T06:27:41.694Z,10.1
2023-04-10T06:37:41.731Z,10.2
2023-04-10T06:42:41.702Z,10.4
2023-04-10T06:47:41.748Z,10.6
2023-04-10T06:52:41.714Z,10.7
2023-04-10T06:57:41.726Z,10.9
2023-04-10T07:02:41.747Z,11.0
2023-04-10T07:07:41.892Z,11.2
2023-04-10T07:12:41.734Z,11.6
2023-04-10T07:17:41.734Z,11.7
2023-04-10T07:22:41.744Z,11.9
2023-04-10T07:37:41.727Z,12.0
2023-04-10T07:47:41.777Z,12.3
2023-04-10T07:52:41.716Z,12.2
2023-04-10T07:57:42.283Z,12.7
2023-04-10T08:07:41.724Z,12.5
2023-04-10T08:12:41.783Z,13.0
2023-04-10T08:17:41.773Z,13.2
2023-04-10T08:22:41.752Z,13.6
2023-04-10T08:27:41.719Z,13.5
2023-04-10T08:32:41.821Z,14.6
2023-04-10T08:37:43.139Z,14.8
2023-04-10T08:42:41.758Z,14.5
2023-04-10T08:47:41.767Z,14.7
2023-04-10T08:52:41.754Z,14.9
2023-04-10T08:57:45.224Z,15.1
2023-04-10T09:07:41.747Z,15.3
2023-04-10T09:12:41.751Z,16.3
2023-04-10T09:17:41.759Z,16.2
2023-04-10T09:22:41.740Z,16.1
2023-04-10T09:32:41.898Z,16.4
2023-04-10T09:37:41.741Z,17.1
2023-04-10T09:42:41.782Z,16.9
2023-04-10T09:47:41.795Z,16.4
2023-04-10T09:52:41.787Z,15.8
2023-04-10T09:57:41.750Z,15.9
2023-04-10T10:02:41.867Z,16.2
2023-04-10T10:07:41.750Z,16.1
2023-04-10T10:12:41.748Z,16.6
2023-04-10T10:17:41.791Z,16.5
2023-04-10T10:22:41.764Z,15.5
2023-04-10T10:27:41.776Z,16.2
2023-04-10T10:32:41.774Z,16.0
2023-04-10T10:37:41.804Z,16.9
2023-04-10T10:42:41.787Z,17.1
2023-04-10T10:47:41.814Z,17.4
2023-04-10T10:52:41.777Z,17.9
2023-04-10T10:57:41.787Z,17.8
2023-04-10T11:02:41.894Z,18.2
2023-04-10T11:07:41.773Z,19.2
2023-04-10T11:12:41.796Z,18.5
2023-04-10T11:17:41.841Z,19.4
2023-04-10T11:22:41.806Z,19.8
2023-04-10T11:32:41.862Z,20.6
2023-04-10T11:37:41.804Z,20.8
2023-04-10T11:42:41.786Z,22.2
2023-04-10T11:47:41.841Z,24.3
2023-04-10T11:52:41.805Z,22.0
2023-04-10T11:57:41.828Z,21.0
2023-04-10T12:02:41.949Z,20.1
2023-04-10T12:07:41.807Z,19.5
2023-04-10T12:12:41.781Z,19.3
2023-04-10T12:17:41.837Z,19.8
2023-04-10T12:22:41.805Z,18.9
2023-04-10T12:27:41.835Z,19.8
2023-04-10T12:32:41.879Z,20.2
2023-04-10T12:37:41.809Z,19.7
2023-04-10T12:42:41.841Z,19.8
2023-04-10T12:47:41.838Z,20.3
2023-04-10T12:52:41.870Z,22.2
2023-04-10T12:57:41.812Z,19.7
2023-04-10T13:02:42.131Z,19.2
2023-04-10T13:07:41.833Z,18.8
2023-04-10T13:12:42.042Z,18.4
2023-04-10T13:22:41.836Z,18.2
2023-04-10T13:27:41.821Z,17.7
2023-04-10T13:32:41.831Z,17.8
2023-04-10T13:37:41.835Z,17.5
2023-04-10T13:42:42.647Z,17.4
2023-04-10T13:47:41.900Z,17.3
2023-04-10T14:02:41.958Z,17.1
2023-04-10T14:07:41.851Z,17.0
2023-04-10T14:12:41.859Z,17.7
2023-04-10T14:17:41.883Z,18.2
2023-04-10T14:22:41.852Z,18.1
2023-04-10T14:27:41.847Z,17.8
2023-04-10T14:32:41.987Z,17.7
2023-04-10T14:37:41.868Z,17.9
2023-04-10T14:42:41.848Z,17.6
2023-04-10T14:47:41.976Z,17.9
2023-04-10T14:52:41.841Z,18.0
2023-04-10T14:57:41.870Z,18.1
2023-04-10T15:02:41.921Z,17.5
2023-04-10T15:07:41.869Z,16.6
2023-04-10T15:12:41.904Z,15.2
2023-04-10T15:17:41.899Z,14.5
2023-04-10T15:22:41.877Z,14.3
2023-04-10T15:27:41.882Z,13.9
2023-04-10T15:32:41.943Z,13.8
2023-04-10T15:37:41.864Z,13.6
2023-04-10T15:42:41.884Z,13.3
2023-04-10T15:47:41.927Z,13.2
2023-04-10T15:52:41.869Z,13.0
2023-04-10T15:57:41.894Z,12.9
2023-04-10T16:02:42.135Z,12.8
2023-04-10T16:07:41.915Z,12.7
2023-04-10T16:17:41.942Z,12.8
2023-04-10T16:22:41.890Z,12.9
2023-04-10T16:27:41.902Z,13.0
2023-04-10T16:37:41.886Z,13.1
2023-04-10T16:42:41.951Z,13.2
2023-04-10T16:47:41.892Z,13.3
2023-04-10T16:52:41.944Z,13.2
2023-04-10T17:07:43.699Z,13.3
2023-04-10T17:17:41.924Z,13.2
2023-04-10T17:22:41.927Z,12.3
2023-04-10T17:27:41.930Z,12.1
2023-04-10T17:32:43.051Z,12.2
2023-04-10T17:37:41.937Z,12.1
2023-04-10T17:42:41.937Z,12.0
2023-04-10T17:47:41.975Z,11.9
2023-04-10T18:07:41.915Z,11.7
2023-04-10T18:17:41.971Z,11.8
2023-04-10T18:22:41.913Z,11.9
2023-04-10T18:27:43.502Z,11.8
2023-04-10T18:32:41.988Z,11.7
2023-04-10T18:47:41.981Z,11.6
2023-04-10T18:57:41.942Z,11.7
2023-04-10T19:07:49.869Z,11.6
2023-04-10T19:12:41.963Z,11.7
2023-04-10T19:17:41.976Z,11.5
2023-04-10T19:27:41.944Z,11.6
2023-04-10T19:37:41.940Z,11.4
2023-04-10T19:42:41.949Z,11.5
2023-04-10T19:47:41.978Z,11.4
2023-04-10T19:57:41.943Z,11.2
2023-04-10T20:02:42.384Z,11.3
2023-04-10T20:12:41.972Z,11.2
2023-04-10T20:17:42.006Z,11.1
2023-04-10T20:27:41.983Z,11.0
2023-04-10T20:32:41.988Z,10.9
2023-04-10T20:42:41.957Z,10.8
2023-04-10T20:47:42.072Z,10.7
2023-04-10T20:52:41.971Z,10.6
2023-04-10T20:57:42.006Z,10.7
2023-04-10T21:02:42.072Z,10.6
2023-04-10T21:17:42.010Z,10.7
2023-04-10T21:22:41.990Z,10.4
2023-04-10T21:27:41.977Z,10.3
2023-04-10T21:32:42.053Z,10.4
2023-04-10T21:42:42.020Z,10.5
2023-04-10T21:47:42.053Z,10.4
2023-04-10T21:57:41.997Z,10.3
2023-04-10T22:07:42.002Z,10.4
2023-04-10T22:17:42.045Z,10.6
2023-04-10T22:22:41.993Z,10.4
2023-04-10T22:32:42.027Z,10.5
2023-04-10T22:37:42.029Z,10.7
2023-04-10T22:47:42.008Z,10.6
2023-04-10T22:57:42.033Z,10.8
2023-04-10T23:02:42.126Z,10.7
2023-04-10T23:32:42.072Z,10.6
2023-04-10T23:42:42.062Z,10.5
2023-04-10T23:47:42.082Z,10.6
2023-04-10T23:52:42.046Z,10.3
